Getzville 2E NY

43° 01' 25"N, 78° 44' 55"W, Elevation 589 ft.
Eastern Time

Hourly observations for the last 72 hours

Date Time Temperature (°F) Humi-
dity

(%)
Wind
(mph)
Pressure Rain (in) Sun
(W/m2)
ET
(in)
Air Dew 6 Hour 1 Hr 3 Hr 6 Hr Day
Alt
(in)
Sea
Level

(mb)
Max Min
24 17:00 69.3 55.7 62 E 5 G 10 30.24 1023.9 0.00 376 0.093
24 16:00 70.9 57.2 62 E 4 G 8 30.24 1023.9 0.00 1041 0.076
24 15:00 69.9 57.6 65 NW 2 G 13 30.25 1024.3 0.00 612 0.059
24 14:00 70.1 56.0 70.8 55.9 61 E 3 G 7 30.25 1024.5 0.00 357 0.046
24 13:00 67.6 55.8 66 NE 1 G 7 30.26 1024.7 0.00 429 0.033
24 12:00 67.3 56.8 69 NE 2 G 7 30.27 1025.2 0.00 257 0.021
24 11:00 64.9 56.0 73 NE 2 G 8 30.28 1025.4 0.00 327 0.013
24 10:00 64.1 56.0 75 E 4 G 12 30.28 1025.4 0.00 367 0.006
24 09:00 61.6 55.7 81 ENE 3 G 8 30.27 1025.3 0.00 86 0.004
24 08:00 55.9 53.6 55.9 51.5 92 Calm 30.27 1025.1 0.00 239 0.001
24 07:00 51.7 49.5 92 Calm 30.25 1024.5 0.00 21 0.001
24 06:00 52.3 49.8 91 Calm 30.22 1023.5 0.00 0 0.001
24 05:00 53.9 51.3 91 Calm 30.20 1022.9 0.00 0 0.001
24 04:00 53.7 50.8 90 Calm 30.20 1022.8 0.00 0 0.001
24 03:00 54.5 51.3 89 Calm 30.19 1022.5 0.00 0 0.001
24 02:00 55.5 51.7 66.1 55.5 87 Calm 30.19 1022.3 0.00 0 0.001
24 01:00 56.7 51.9 84 Calm 30.19 1022.3 0.00 0 0.000
24 00:00 59.1 51.9 77 Calm 30.17 1021.7 0.00 0 0.159
23 23:00 61.6 54.0 76 NE 0 G 1 30.16 1021.3 0.00 0 0.158
23 22:00 61.0 54.1 78 NE 1 G 2 30.14 1020.8 0.00 0 0.157
23 21:00 61.0 53.7 77 Calm 30.13 1020.3 0.00 0 0.157
23 20:00 66.1 54.8 74.3 66.1 67 ENE 0 G 1 30.11 1019.7 0.00 7 0.156
23 19:00 69.5 54.1 58 ENE 3 G 6 30.11 1019.6 0.00 125 0.152
23 18:00 70.4 52.0 52 ENE 2 G 8 30.10 1019.5 0.00 90 0.148
23 17:00 71.7 54.2 54 NNE 2 G 7 30.09 1019.2 0.00 162 0.140
23 16:00 73.6 54.4 51 WNW 2 G 10 30.10 1019.3 0.00 875 0.118
23 15:00 72.2 55.2 55 NW 3 G 10 30.10 1019.4 0.00 970 0.093
23 14:00 71.9 55.4 72.6 59.3 56 E 4 G 9 30.11 1019.5 0.00 1060 0.068
23 13:00 71.5 54.5 55 NE 3 G 9 30.10 1019.3 0.00 1165 0.041
23 12:00 70.4 56.3 61 NE 4 G 10 30.09 1019.0 0.00 338 0.021
23 11:00 68.3 56.5 66 E 3 G 8 30.10 1019.2 0.00 1100 0.010
23 10:00 65.5 59.2 80 E 4 G 8 30.09 1019.1 0.00 232 0.006
23 09:00 63.5 58.6 84 E 3 G 7 30.08 1018.5 0.00 76 0.004
23 08:00 59.3 57.3 59.3 54.0 93 WNW 0 G 1 30.07 1018.3 0.00 248 0.001
23 07:00 54.1 52.1 93 Calm 30.05 1017.7 0.00 21 0.001
23 06:00 55.0 52.7 92 Calm 30.03 1016.9 0.00 0 0.001
23 05:00 55.8 53.5 92 Calm 30.02 1016.7 0.00 0 0.001
23 04:00 56.8 53.9 90 Calm 30.01 1016.2 0.00 0 0.001
23 03:00 57.8 54.3 88 Calm 30.00 1016.0 0.00 0 0.001
23 02:00 59.0 54.8 66.8 59.0 86 Calm 30.01 1016.2 0.00 0 0.001
23 01:00 60.2 54.4 81 N 0 G 1 30.00 1015.9 0.00 0 0.000
23 00:00 61.1 55.2 81 WSW 0 G 2 29.98 1015.2 0.00 0 0.106
22 23:00 59.5 55.6 87 Calm 29.96 1014.7 0.00 0 0.106
22 22:00 60.6 56.1 85 Calm 29.95 1014.3 0.00 0 0.105
22 21:00 62.8 56.5 80 Calm 29.94 1013.9 0.00 0 0.105
22 20:00 66.8 56.3 74.7 66.8 69 Calm 29.93 1013.5 0.00 7 0.104
22 19:00 72.3 57.7 60 NW 1 G 6 29.92 1013.3 0.00 37 0.101
22 18:00 72.0 56.4 58 NNE 2 G 6 29.92 1013.1 0.00 134 0.097
22 17:00 73.8 57.6 57 NW 3 G 8 29.92 1013.2 0.00 107 0.086
22 16:00 72.8 58.1 60 NW 2 G 10 29.92 1013.2 0.00 345 0.072
22 15:00 72.6 57.9 60 WNW 3 G 6 29.92 1013.2 0.00 566 0.059
22 14:00 71.4 57.7 72.3 66.0 62 WNW 3 G 7 29.93 1013.7 0.00 445 0.047
22 13:00 72.2 58.0 61 W 5 G 13 29.94 1013.9 0.00 555 0.034
22 12:00 70.5 57.8 64 W 2 G 6 29.94 1013.9 0.00 527 0.021
22 11:00 68.4 56.6 66 W 1 G 3 29.93 1013.5 0.00 301 0.015
22 10:00 68.3 57.3 68 WNW 2 G 5 29.92 1013.2 0.00 322 0.010
22 09:00 67.3 57.6 71 WNW 0 G 1 29.91 1012.9 0.00 137 0.007
22 08:00 66.1 58.0 71.7 65.9 75 W 0 G 3 29.90 1012.5 0.00 62 0.006
22 07:00 66.1 57.6 74 W 0 G 3 29.89 1012.2 0.00 14 0.006
22 06:00 66.6 58.1 74 W 0 G 4 29.87 1011.5 0.00 0 0.005
22 05:00 67.7 57.6 70 WNW 0 G 2 29.85 1010.9 0.00 0 0.004
22 04:00 69.2 60.2 73 WNW 2 G 5 29.84 1010.5 0.00 0 0.003
22 03:00 70.4 63.6 79 S 2 G 3 29.82 1009.9 0.00 0 0.002
22 02:00 71.7 68.0 75.4 71.7 88 W 3 G 9 29.83 1010.1 0.00 0 0.001
22 01:00 73.1 69.7 89 W 3 G 7 29.82 1009.9 0.00 0 0.000
22 00:00 74.4 71.6 91 SW 2 G 9 29.81 1009.4 2.35 0 0.155
21 23:00 74.4 71.9 92 S 1 G 5 29.80 1009.0 2.35 0 0.155
21 22:00 74.6 71.8 91 SSW 2 G 3 29.81 1009.7 2.35 0 0.155
21 21:00 74.5 71.4 90 SW 1 G 6 29.80 1009.2 2.35 0 0.155
21 20:00 75.4 71.6 84.0 75.4 88 SW 4 G 10 29.81 1009.3 2.35 7 0.154
21 19:00 77.2 71.6 83 SW 2 G 4 29.79 1008.8 2.35 56 0.151
21 18:00 78.4 71.7 80 SW 2 G 7 29.81 1009.4 2.35 91 0.147

Data generated by WxSolution Version 1.9.1.5, Build 2018.05.20.